USCGC Eagle — NRCB — position and weather

sailwx.info

Track history (hours):
 
Tides and Currents Weather Stations Pressure Air Temp Water Temp Dewpoint Dewpoint Depression Visibility Wind Speed Wind Dir Waves Ship Positions

USCGC Eagle (United States)

Training ship of US Coast Guard Academy, and only square-rigger in active service in the US armed services. Ex German ship Horst Wessel.

Ship's website: http://www.cga.edu/eagle/

Last reported at 2014-Aug-08 12:15 UTC. Time now 2014-Aug-22 11:53 UTC.
Position N 41°21' W 072°05'.
Warning: this ship's position is 13 days out of date.

AWS

Date/timePositionNaut miles runAvg speedWind from/ knotsBaromVisibWave heightAir tempDewpointWater temp
2014-Aug-08 12:15N 41°21' W 072°05'2 2.5
2014-Aug-08 11:33N 41°20' W 072°05'2 2.5
2014-Aug-08 10:33N 41°17' W 072°04'0 0.0
2014-Aug-08 09:31N 41°17' W 072°04'0 0.0
2014-Aug-08 08:31N 41°17' W 072°04'0 0.1
2014-Aug-08 07:31N 41°17' W 072°04'0 0.1
2014-Aug-08 06:31N 41°17' W 072°04'0 0.0
2014-Aug-08 05:30N 41°17' W 072°04'0 0.0
2014-Aug-08 04:30N 41°17' W 072°04'0 0.0
2014-Aug-08 03:30N 41°17' W 072°04'0 0.0
2014-Aug-08 02:33N 41°17' W 072°04'0 0.0
2014-Aug-08 01:33N 41°17' W 072°04'0 0.0
2014-Aug-08 00:33N 41°17' W 072°04'0 0.0
2014-Aug-07 23:33N 41°17' W 072°04'0 0.0
2014-Aug-07 22:31N 41°17' W 072°04'0 0.0
2014-Aug-07 21:31N 41°17' W 072°04'0 0.0
2014-Aug-07 20:31N 41°17' W 072°04'4 4.2
2014-Aug-07 19:34N 41°14' W 072°01'6 6.3
2014-Aug-07 18:33N 41°11' W 071°53'7 6.9
2014-Aug-07 17:34N 41°08' W 071°46'9 8.8
2014-Aug-07 16:33N 41°03' W 071°36'1010.1
2014-Aug-07 15:34N 40°58' W 071°24'1110.2
2014-Aug-07 14:30N 40°54' W 071°11'1110.2
2014-Aug-07 13:26N 40°50' W 070°58'1010.0
2014-Aug-07 12:29N 40°46' W 070°46'5 9.5
2014-Aug-07 12:00N 40°44' W 070°40'510.1
2014-Aug-07 11:32N 40°42' W 070°35'9 9.5
2014-Aug-07 10:33N 40°38' W 070°24'9 8.8
2014-Aug-07 09:33N 40°36' W 070°13'9 8.5
2014-Aug-07 08:30N 40°36' W 070°01'8 8.3
2014-Aug-07 07:31N 40°36' W 069°50'40 5.3
2014-Aug-07 00:00N 41°04' W 069°13'20451.1
2014-Aug-06 20:00N 44°29' W 069°29'15739.3
2014-Aug-06 16:00N 41°51' W 069°24'38 9.6
2014-Aug-06 12:00N 42°25' W 068°59'31 7.6
2014-Aug-06 08:00N 42°52' W 068°39'50 1.6
2014-Aug-05 00:00N 43°36' W 069°09'8 1.9
2014-Aug-04 20:00N 43°43' W 069°14'  
2014-Aug-01 08:00N 43°42' W 069°01'9 2.2
2014-Aug-01 04:00N 43°39' W 068°50'41 3.4
2014-Jul-31 16:00N 43°28' W 069°44'9 2.3
2014-Jul-31 12:00N 43°23' W 069°55'29 2.4
2014-Jul-31 00:00N 42°57' W 069°36'5 1.1
2014-Jul-30 20:00N 42°53' W 069°34'22 2.8
2014-Jul-30 12:00N 42°31' W 069°30'7 1.7
2014-Jul-30 08:00N 42°24' W 069°28'8 2.0
2014-Jul-30 04:00N 42°16' W 069°31'  
Track history (hours):
 
Tides and Currents Weather Stations Pressure Air Temp Water Temp Dewpoint Dewpoint Depression Visibility Wind Speed Wind Dir Waves Ship Positions

USCGC Eagle (United States)

Training ship of US Coast Guard Academy, and only square-rigger in active service in the US armed services. Ex German ship Horst Wessel.

Ship's website: http://www.cga.edu/eagle/

Last reported at 2014-Aug-08 12:15 UTC. Time now 2014-Aug-22 11:53 UTC.
Position N 41°21' W 072°05'.
Warning: this ship's position is 13 days out of date.

AWS

Date/timePositionNaut miles runAvg speedWind from/ knotsBaromVisibWave heightAir tempDewpointWater temp
2014-Aug-08 12:15N 41°21' W 072°05'2 2.5
2014-Aug-08 11:33N 41°20' W 072°05'2 2.5
2014-Aug-08 10:33N 41°17' W 072°04'0 0.0
2014-Aug-08 09:31N 41°17' W 072°04'0 0.0
2014-Aug-08 08:31N 41°17' W 072°04'0 0.1
2014-Aug-08 07:31N 41°17' W 072°04'0 0.1
2014-Aug-08 06:31N 41°17' W 072°04'0 0.0
2014-Aug-08 05:30N 41°17' W 072°04'0 0.0
2014-Aug-08 04:30N 41°17' W 072°04'0 0.0
2014-Aug-08 03:30N 41°17' W 072°04'0 0.0
2014-Aug-08 02:33N 41°17' W 072°04'0 0.0
2014-Aug-08 01:33N 41°17' W 072°04'0 0.0
2014-Aug-08 00:33N 41°17' W 072°04'0 0.0
2014-Aug-07 23:33N 41°17' W 072°04'0 0.0
2014-Aug-07 22:31N 41°17' W 072°04'0 0.0
2014-Aug-07 21:31N 41°17' W 072°04'0 0.0
2014-Aug-07 20:31N 41°17' W 072°04'4 4.2
2014-Aug-07 19:34N 41°14' W 072°01'6 6.3
2014-Aug-07 18:33N 41°11' W 071°53'7 6.9
2014-Aug-07 17:34N 41°08' W 071°46'9 8.8
2014-Aug-07 16:33N 41°03' W 071°36'1010.1
2014-Aug-07 15:34N 40°58' W 071°24'1110.2
2014-Aug-07 14:30N 40°54' W 071°11'1110.2
2014-Aug-07 13:26N 40°50' W 070°58'1010.0
2014-Aug-07 12:29N 40°46' W 070°46'5 9.5
2014-Aug-07 12:00N 40°44' W 070°40'510.1
2014-Aug-07 11:32N 40°42' W 070°35'9 9.5
2014-Aug-07 10:33N 40°38' W 070°24'9 8.8
2014-Aug-07 09:33N 40°36' W 070°13'9 8.5
2014-Aug-07 08:30N 40°36' W 070°01'8 8.3
2014-Aug-07 07:31N 40°36' W 069°50'40 5.3
2014-Aug-07 00:00N 41°04' W 069°13'20451.1
2014-Aug-06 20:00N 44°29' W 069°29'15739.3
2014-Aug-06 16:00N 41°51' W 069°24'38 9.6
2014-Aug-06 12:00N 42°25' W 068°59'31 7.6
2014-Aug-06 08:00N 42°52' W 068°39'50 1.6
2014-Aug-05 00:00N 43°36' W 069°09'8 1.9
2014-Aug-04 20:00N 43°43' W 069°14'  
2014-Aug-01 08:00N 43°42' W 069°01'9 2.2
2014-Aug-01 04:00N 43°39' W 068°50'41 3.4
2014-Jul-31 16:00N 43°28' W 069°44'9 2.3
2014-Jul-31 12:00N 43°23' W 069°55'29 2.4
2014-Jul-31 00:00N 42°57' W 069°36'5 1.1
2014-Jul-30 20:00N 42°53' W 069°34'22 2.8
2014-Jul-30 12:00N 42°31' W 069°30'7 1.7
2014-Jul-30 08:00N 42°24' W 069°28'8 2.0
2014-Jul-30 04:00N 42°16' W 069°31'  

Dump ship's entire track history